createdAt,value
2024-03-08T00:00:44.087Z,17.80
2024-03-08T00:03:14.453Z,22.05
2024-03-08T00:05:43.082Z,21.17
2024-03-08T00:08:11.840Z,18.65
2024-03-08T00:10:40.719Z,21.38
2024-03-08T00:13:09.323Z,20.85
2024-03-08T00:15:37.865Z,19.45
2024-03-08T00:18:06.685Z,19.15
2024-03-08T00:20:36.843Z,19.52
2024-03-08T00:23:05.371Z,20.55
2024-03-08T00:25:33.761Z,24.35
2024-03-08T00:28:02.421Z,21.92
2024-03-08T00:30:32.245Z,22.33
2024-03-08T00:33:01.104Z,26.70
2024-03-08T00:35:29.718Z,18.98
2024-03-08T00:37:59.625Z,18.83
2024-03-08T00:40:28.969Z,19.95
2024-03-08T00:42:57.959Z,23.73
2024-03-08T00:45:26.305Z,23.33
2024-03-08T00:47:55.393Z,20.80
2024-03-08T00:50:24.340Z,19.67
2024-03-08T00:52:53.129Z,22.20
2024-03-08T00:55:23.319Z,20.55
2024-03-08T00:57:51.855Z,21.35
2024-03-08T01:00:22.344Z,21.25
2024-03-08T01:02:51.329Z,25.48
2024-03-08T01:05:20.558Z,23.05
2024-03-08T01:07:49.105Z,25.23
2024-03-08T01:10:17.704Z,22.17
2024-03-08T01:12:47.568Z,24.95
2024-03-08T01:15:16.042Z,22.80
2024-03-08T01:17:45.452Z,22.75
2024-03-08T01:20:14.106Z,25.73
2024-03-08T01:22:43.820Z,24.38
2024-03-08T01:25:12.529Z,26.13
2024-03-08T01:27:40.966Z,24.77
2024-03-08T01:30:11.992Z,22.33
2024-03-08T01:32:40.550Z,21.60
2024-03-08T01:35:11.038Z,20.00
2024-03-08T01:37:40.057Z,24.90
2024-03-08T01:40:09.933Z,21.08
2024-03-08T01:42:39.088Z,23.75
2024-03-08T01:45:08.728Z,24.15
2024-03-08T01:47:39.398Z,22.15
2024-03-08T01:50:08.498Z,21.65
2024-03-08T01:52:37.039Z,22.30
2024-03-08T01:55:08.708Z,22.02
2024-03-08T01:57:39.333Z,20.30
2024-03-08T02:00:12.221Z,24.05
2024-03-08T02:02:45.864Z,20.27
2024-03-08T02:05:15.195Z,23.58
2024-03-08T02:07:45.192Z,19.27
2024-03-08T02:10:15.125Z,21.88
2024-03-08T02:12:44.394Z,21.83
2024-03-08T02:15:13.210Z,19.00
2024-03-08T02:17:44.236Z,21.58
2024-03-08T02:20:14.812Z,21.17
2024-03-08T02:22:45.607Z,21.33
2024-03-08T02:25:14.301Z,22.25
2024-03-08T02:27:42.721Z,25.20
2024-03-08T02:30:14.380Z,26.05
2024-03-08T02:32:43.301Z,21.70
2024-03-08T02:35:11.777Z,25.38
2024-03-08T02:37:40.436Z,25.10
2024-03-08T02:40:11.093Z,23.88
2024-03-08T02:42:38.517Z,28.63
2024-03-08T02:45:07.750Z,28.13
2024-03-08T02:47:36.702Z,26.37
2024-03-08T02:50:06.084Z,28.10
2024-03-08T02:52:35.102Z,24.50
2024-03-08T02:55:03.455Z,26.73
2024-03-08T02:57:33.718Z,32.37
2024-03-08T03:00:02.220Z,28.58
2024-03-08T03:02:31.143Z,27.53
2024-03-08T03:05:00.197Z,27.40
2024-03-08T03:07:29.204Z,25.50
2024-03-08T03:09:58.092Z,31.53
2024-03-08T03:12:27.011Z,30.83
2024-03-08T03:14:57.864Z,27.90
2024-03-08T03:17:26.772Z,28.85
2024-03-08T03:19:56.338Z,33.38
2024-03-08T03:22:26.602Z,30.40
2024-03-08T03:24:55.462Z,28.33
2024-03-08T03:27:24.499Z,32.42
2024-03-08T03:29:53.625Z,22.57
2024-03-08T03:32:24.667Z,27.30
2024-03-08T03:34:54.436Z,28.90
2024-03-08T03:37:22.863Z,32.58
2024-03-08T03:39:53.195Z,30.17
2024-03-08T03:42:22.216Z,33.40
2024-03-08T03:44:51.382Z,31.03
2024-03-08T03:47:20.167Z,31.77
2024-03-08T03:49:50.101Z,28.60
2024-03-08T03:52:18.579Z,28.87
2024-03-08T03:54:47.434Z,30.90
2024-03-08T03:57:15.902Z,31.60
2024-03-08T03:59:44.528Z,30.60
2024-03-08T04:02:12.946Z,30.37
2024-03-08T04:04:41.502Z,33.30
2024-03-08T04:07:12.188Z,28.90
2024-03-08T04:09:41.190Z,30.50
2024-03-08T04:12:11.061Z,31.40
2024-03-08T04:14:41.080Z,28.57
2024-03-08T04:17:10.525Z,30.97
2024-03-08T04:19:38.958Z,34.80
2024-03-08T04:22:08.998Z,30.00
2024-03-08T04:24:38.904Z,34.50
2024-03-08T04:27:07.848Z,32.87
2024-03-08T04:29:37.396Z,38.37
2024-03-08T04:32:06.969Z,36.20
2024-03-08T04:34:36.021Z,33.27
2024-03-08T04:37:06.155Z,29.80
2024-03-08T04:39:34.906Z,32.63
2024-03-08T04:42:07.963Z,32.93
2024-03-08T04:44:36.478Z,34.53
2024-03-08T04:47:07.299Z,32.97
2024-03-08T04:49:36.675Z,34.70
2024-03-08T04:52:05.524Z,40.13
2024-03-08T04:54:34.352Z,33.83
2024-03-08T04:57:06.017Z,36.90
2024-03-08T04:59:37.974Z,36.10
2024-03-08T05:02:08.444Z,35.37
2024-03-08T05:04:37.131Z,31.20
2024-03-08T05:07:06.165Z,34.37
2024-03-08T05:09:35.551Z,32.93
2024-03-08T05:12:04.550Z,31.10
2024-03-08T05:14:33.012Z,32.63
2024-03-08T05:17:03.306Z,37.73
2024-03-08T05:19:34.899Z,27.73
2024-03-08T05:22:04.749Z,30.77
2024-03-08T05:24:33.437Z,29.23
2024-03-08T05:27:02.388Z,41.83
2024-03-08T05:29:31.090Z,34.93
2024-03-08T05:32:00.949Z,41.70
2024-03-08T05:34:30.845Z,41.60
2024-03-08T05:37:00.012Z,32.27
2024-03-08T05:39:29.009Z,42.63
2024-03-08T05:41:57.859Z,34.27
2024-03-08T05:44:26.326Z,37.13
2024-03-08T05:46:54.785Z,35.90
2024-03-08T05:49:23.568Z,33.77
2024-03-08T05:51:55.405Z,43.23
2024-03-08T05:54:26.514Z,37.30
2024-03-08T05:56:55.955Z,40.70
2024-03-08T05:59:25.294Z,38.83
2024-03-08T06:01:54.151Z,37.67
2024-03-08T06:04:22.902Z,35.90
2024-03-08T06:06:53.062Z,44.50
2024-03-08T06:09:25.164Z,38.43
2024-03-08T06:11:55.877Z,31.87
2024-03-08T06:14:25.005Z,34.07
2024-03-08T06:16:53.979Z,35.43
2024-03-08T06:19:22.437Z,27.37
2024-03-08T06:21:51.219Z,36.30
2024-03-08T06:24:21.174Z,33.27
2024-03-08T06:26:50.157Z,38.23
2024-03-08T06:29:18.973Z,34.60
2024-03-08T06:31:47.866Z,45.97
2024-03-08T06:34:16.844Z,37.20
2024-03-08T06:36:45.709Z,40.33
2024-03-08T06:39:14.620Z,33.83
2024-03-08T06:41:45.738Z,32.57
2024-03-08T06:44:14.914Z,38.77
2024-03-08T06:46:43.878Z,36.40
2024-03-08T06:49:12.482Z,39.63
2024-03-08T06:51:42.611Z,35.87
2024-03-08T06:54:11.398Z,31.27
2024-03-08T06:56:40.298Z,32.67
2024-03-08T06:59:14.213Z,34.77
2024-03-08T07:01:42.924Z,33.63
2024-03-08T07:04:13.313Z,33.70
2024-03-08T07:06:42.609Z,36.22
2024-03-08T07:09:11.064Z,35.25
2024-03-08T07:11:41.058Z,31.27
2024-03-08T07:14:12.884Z,28.25
2024-03-08T07:16:42.708Z,28.88
2024-03-08T07:19:11.579Z,32.45
2024-03-08T07:21:40.003Z,33.95
2024-03-08T07:24:25.776Z,30.63
2024-03-08T07:26:54.359Z,28.52
2024-03-08T07:29:24.633Z,29.65
2024-03-08T07:32:02.689Z,30.13
2024-03-08T07:34:33.209Z,22.80
2024-03-08T07:37:02.129Z,31.73
2024-03-08T07:39:30.595Z,33.25
2024-03-08T07:41:59.544Z,46.25
2024-03-08T07:44:30.904Z,27.73
2024-03-08T07:47:00.550Z,30.52
2024-03-08T07:49:28.984Z,33.45
2024-03-08T07:51:57.634Z,27.33
2024-03-08T07:54:27.271Z,28.80
2024-03-08T07:56:56.457Z,27.45
2024-03-08T07:59:24.861Z,30.33
2024-03-08T08:01:55.301Z,28.85
2024-03-08T08:04:26.144Z,28.00
2024-03-08T08:06:56.358Z,28.10
2024-03-08T08:09:36.232Z,28.08
2024-03-08T08:12:05.124Z,34.13
2024-03-08T08:14:33.526Z,34.08
2024-03-08T08:17:05.888Z,33.50
2024-03-08T08:19:34.974Z,29.42
2024-03-08T08:22:04.323Z,26.15
2024-03-08T08:24:33.258Z,29.45
2024-03-08T08:27:02.004Z,31.40
2024-03-08T08:29:31.734Z,28.52
2024-03-08T08:32:02.934Z,24.92
2024-03-08T08:34:34.132Z,29.00
2024-03-08T08:37:03.031Z,27.42
2024-03-08T08:39:32.005Z,27.08
2024-03-08T08:42:00.535Z,31.23
2024-03-08T08:44:29.395Z,24.38
2024-03-08T08:47:03.183Z,29.15
2024-03-08T08:49:39.983Z,27.15
2024-03-08T08:52:12.657Z,27.10
2024-03-08T08:54:48.934Z,30.00
2024-03-08T08:57:19.407Z,27.02
2024-03-08T08:59:47.835Z,30.23
2024-03-08T09:02:18.612Z,27.00
2024-03-08T09:04:50.580Z,28.60
2024-03-08T09:07:20.172Z,31.48
2024-03-08T09:09:49.071Z,26.25
2024-03-08T09:12:18.018Z,25.95
2024-03-08T09:14:46.942Z,28.30
2024-03-08T09:17:18.649Z,27.33
2024-03-08T09:19:47.427Z,26.42
2024-03-08T09:22:17.421Z,29.50
2024-03-08T09:24:47.112Z,30.88
2024-03-08T09:27:16.148Z,30.88
2024-03-08T09:29:45.815Z,29.08
2024-03-08T09:32:14.739Z,27.83
2024-03-08T09:34:43.224Z,28.15
2024-03-08T09:37:12.360Z,29.13
2024-03-08T09:39:42.414Z,29.13
2024-03-08T09:42:12.134Z,28.48
2024-03-08T09:44:40.978Z,30.60
2024-03-08T09:47:09.690Z,28.20
2024-03-08T09:49:39.248Z,33.00
2024-03-08T09:52:08.475Z,29.55
2024-03-08T09:54:37.655Z,30.90
2024-03-08T09:57:10.719Z,31.30
2024-03-08T09:59:49.827Z,29.95
2024-03-08T10:02:19.676Z,30.20
2024-03-08T10:04:52.106Z,27.20
2024-03-08T10:07:20.533Z,26.02
2024-03-08T10:09:51.848Z,26.50
2024-03-08T10:12:23.158Z,28.10
2024-03-08T10:14:51.701Z,26.08
2024-03-08T10:17:20.223Z,27.67
2024-03-08T10:19:55.366Z,27.25
2024-03-08T10:22:23.968Z,26.95
2024-03-08T10:24:52.523Z,31.13
2024-03-08T10:27:22.902Z,28.95
2024-03-08T10:29:53.106Z,27.15
2024-03-08T10:32:22.296Z,28.23
2024-03-08T10:34:51.906Z,25.90
2024-03-08T10:37:25.886Z,25.92
2024-03-08T10:40:00.801Z,27.23
2024-03-08T10:42:33.282Z,24.17
2024-03-08T10:45:10.175Z,27.48
2024-03-08T10:47:42.545Z,26.17
2024-03-08T10:50:14.236Z,23.58
2024-03-08T10:52:42.930Z,23.92
2024-03-08T10:55:13.972Z,22.20
2024-03-08T10:57:44.288Z,25.30
2024-03-08T11:00:13.682Z,24.38
2024-03-08T11:02:43.611Z,25.13
2024-03-08T11:05:14.742Z,25.13
2024-03-08T11:07:43.914Z,21.38
2024-03-08T11:10:21.905Z,24.25
2024-03-08T11:12:51.821Z,22.25
2024-03-08T11:15:20.664Z,26.95
2024-03-08T11:17:50.218Z,23.95
2024-03-08T11:20:21.702Z,25.17
2024-03-08T11:22:53.989Z,27.70
2024-03-08T11:25:37.909Z,22.15
2024-03-08T11:28:24.525Z,22.80
2024-03-08T11:31:09.051Z,24.02
2024-03-08T11:33:39.686Z,21.67
2024-03-08T11:36:13.174Z,22.17
2024-03-08T11:38:43.716Z,20.55
2024-03-08T11:41:18.753Z,24.13
2024-03-08T11:43:48.543Z,20.98
2024-03-08T11:46:17.797Z,21.15
2024-03-08T11:48:50.314Z,21.00
2024-03-08T11:51:20.391Z,21.02
2024-03-08T11:53:49.207Z,21.88
2024-03-08T11:56:18.286Z,21.48
2024-03-08T11:58:57.230Z,21.65
2024-03-08T12:01:26.016Z,23.33
2024-03-08T12:04:00.068Z,21.80
2024-03-08T12:06:28.890Z,21.52
2024-03-08T12:08:57.761Z,22.27
2024-03-08T12:11:28.884Z,22.30
2024-03-08T12:13:59.659Z,24.15
2024-03-08T12:16:29.118Z,25.02
2024-03-08T12:18:59.199Z,21.92
2024-03-08T12:21:30.946Z,24.60
2024-03-08T12:24:06.751Z,21.05
2024-03-08T12:26:35.700Z,20.23
2024-03-08T12:29:21.567Z,22.25
2024-03-08T12:31:51.193Z,23.70
2024-03-08T12:34:21.137Z,20.27
2024-03-08T12:36:50.082Z,20.27
2024-03-08T12:39:28.283Z,20.77
2024-03-08T12:41:58.774Z,24.77
2024-03-08T12:44:29.487Z,21.67
2024-03-08T12:47:01.003Z,21.10
2024-03-08T12:49:32.103Z,22.73
2024-03-08T12:52:00.949Z,24.05
2024-03-08T12:54:29.345Z,18.55
2024-03-08T12:56:57.850Z,18.05
2024-03-08T12:59:26.494Z,20.70
2024-03-08T13:01:56.799Z,21.92
2024-03-08T13:04:27.388Z,21.13
2024-03-08T13:06:57.156Z,19.05
2024-03-08T13:09:28.664Z,18.08
2024-03-08T13:12:00.393Z,19.35
2024-03-08T13:14:33.014Z,18.88
2024-03-08T13:17:01.503Z,17.42
2024-03-08T13:19:30.306Z,19.13
2024-03-08T13:22:00.146Z,19.13
2024-03-08T13:24:29.174Z,18.23
2024-03-08T13:26:57.600Z,18.02
2024-03-08T13:29:26.516Z,20.13
2024-03-08T13:31:57.769Z,18.67
2024-03-08T13:34:31.143Z,18.80
2024-03-08T13:37:02.334Z,18.83
2024-03-08T13:39:36.632Z,17.75
2024-03-08T13:42:10.803Z,13.80
2024-03-08T13:44:39.554Z,18.27
2024-03-08T13:47:08.625Z,17.90
2024-03-08T13:49:38.208Z,18.58
2024-03-08T13:52:09.547Z,15.13
2024-03-08T13:54:38.355Z,15.43
2024-03-08T13:57:09.027Z,14.57
2024-03-08T13:59:39.397Z,14.32
2024-03-08T14:02:11.743Z,14.65
2024-03-08T14:04:41.253Z,16.60
2024-03-08T14:07:12.651Z,15.85
2024-03-08T14:09:43.901Z,16.58
2024-03-08T14:12:12.743Z,14.63
2024-03-08T14:14:41.106Z,14.30
2024-03-08T14:17:12.306Z,13.40
2024-03-08T14:19:41.350Z,13.70
2024-03-08T14:22:14.748Z,13.75
2024-03-08T14:24:43.442Z,13.32
2024-03-08T14:27:13.408Z,13.75
2024-03-08T14:29:41.765Z,14.93
2024-03-08T14:32:11.795Z,15.30
2024-03-08T14:34:40.557Z,13.30
2024-03-08T14:37:13.125Z,15.85
2024-03-08T14:39:43.053Z,16.17
2024-03-08T14:42:14.848Z,14.73
2024-03-08T14:44:44.777Z,17.88
2024-03-08T14:47:15.473Z,17.40
2024-03-08T14:49:44.271Z,20.05
2024-03-08T14:52:28.421Z,18.85
2024-03-08T14:54:59.526Z,22.15
2024-03-08T14:57:28.571Z,20.90
2024-03-08T14:59:57.027Z,21.08
2024-03-08T15:02:25.851Z,17.63
2024-03-08T15:04:58.900Z,21.88
2024-03-08T15:07:28.316Z,20.67
2024-03-08T15:09:58.804Z,19.30
2024-03-08T15:12:29.535Z,22.38
2024-03-08T15:14:58.241Z,21.98
2024-03-08T15:17:26.805Z,17.35
2024-03-08T15:19:55.904Z,20.75
2024-03-08T15:22:25.342Z,17.98
2024-03-08T15:24:54.203Z,20.20
2024-03-08T15:27:25.050Z,20.92
2024-03-08T15:29:57.199Z,21.95
2024-03-08T15:32:25.639Z,20.65
2024-03-08T15:34:55.728Z,21.45
2024-03-08T15:37:26.725Z,17.00
2024-03-08T15:39:55.555Z,23.95
2024-03-08T15:42:27.003Z,21.20
2024-03-08T15:44:57.834Z,20.85
2024-03-08T15:47:27.147Z,20.70
2024-03-08T15:49:56.005Z,21.35
2024-03-08T15:52:24.721Z,16.70
2024-03-08T15:54:54.695Z,19.92
2024-03-08T15:57:23.644Z,20.77
2024-03-08T15:59:54.035Z,17.92
2024-03-08T16:02:24.406Z,20.25
2024-03-08T16:04:53.013Z,20.73
2024-03-08T16:07:21.967Z,17.55
2024-03-08T16:09:52.314Z,15.70
2024-03-08T16:12:20.744Z,21.13
2024-03-08T16:14:49.342Z,21.02
2024-03-08T16:17:19.859Z,19.98
2024-03-08T16:19:48.421Z,16.88
2024-03-08T16:22:19.220Z,16.30
2024-03-08T16:24:51.760Z,16.33
2024-03-08T16:27:21.915Z,18.52
2024-03-08T16:29:53.664Z,18.25
2024-03-08T16:32:23.575Z,18.73
2024-03-08T16:34:52.816Z,19.80
2024-03-08T16:37:21.240Z,17.15
2024-03-08T16:39:49.970Z,17.98
2024-03-08T16:42:18.496Z,19.17
2024-03-08T16:44:47.350Z,20.90
2024-03-08T16:47:17.347Z,17.08
2024-03-08T16:49:47.250Z,17.52
2024-03-08T16:52:15.864Z,19.75
2024-03-08T16:54:52.150Z,17.55
2024-03-08T16:57:26.824Z,18.30
2024-03-08T16:59:55.631Z,18.05
2024-03-08T17:02:24.294Z,19.60
2024-03-08T17:04:54.926Z,19.75
2024-03-08T17:07:23.995Z,22.73
2024-03-08T17:09:52.906Z,16.27
2024-03-08T17:12:21.612Z,18.63
2024-03-08T17:14:50.354Z,19.05
2024-03-08T17:17:19.111Z,18.63
2024-03-08T17:19:47.645Z,19.85
2024-03-08T17:22:17.614Z,19.85
2024-03-08T17:24:46.157Z,21.08
2024-03-08T17:27:17.439Z,17.85
2024-03-08T17:29:46.758Z,19.15
2024-03-08T17:32:15.644Z,22.70
2024-03-08T17:34:44.556Z,19.67
2024-03-08T17:37:16.278Z,21.25
2024-03-08T17:39:46.164Z,21.10
2024-03-08T17:42:15.436Z,21.13
2024-03-08T17:44:46.387Z,20.67
2024-03-08T17:47:16.977Z,21.27
2024-03-08T17:49:45.925Z,19.02
2024-03-08T17:52:14.546Z,19.63
2024-03-08T17:54:43.064Z,18.98
2024-03-08T17:57:13.266Z,19.67
2024-03-08T17:59:41.807Z,22.02
2024-03-08T18:02:14.181Z,21.70
2024-03-08T18:04:42.641Z,20.58
2024-03-08T18:07:12.456Z,20.17
2024-03-08T18:09:41.333Z,20.23
2024-03-08T18:12:10.443Z,22.38
2024-03-08T18:14:41.606Z,20.77
2024-03-08T18:17:13.278Z,21.77
2024-03-08T18:19:41.843Z,21.27
2024-03-08T18:22:12.848Z,17.67
2024-03-08T18:24:42.810Z,21.60
2024-03-08T18:27:11.591Z,22.10
2024-03-08T18:29:41.731Z,16.23
2024-03-08T18:32:10.815Z,18.05
2024-03-08T18:34:44.532Z,18.90
2024-03-08T18:37:14.371Z,17.67
2024-03-08T18:39:43.168Z,18.23
2024-03-08T18:42:13.232Z,17.88
2024-03-08T18:44:43.235Z,18.25
2024-03-08T18:47:11.813Z,17.95
2024-03-08T18:49:40.698Z,21.15
2024-03-08T18:52:09.543Z,17.73
2024-03-08T18:54:37.915Z,21.50
2024-03-08T18:57:07.482Z,18.52
2024-03-08T18:59:38.366Z,16.23
2024-03-08T19:02:08.884Z,19.77
2024-03-08T19:04:37.987Z,20.23
2024-03-08T19:07:06.519Z,16.52
2024-03-08T19:09:35.972Z,18.80
2024-03-08T19:12:09.775Z,18.00
2024-03-08T19:14:39.297Z,17.63
2024-03-08T19:17:11.925Z,17.10
2024-03-08T19:19:40.404Z,16.38
2024-03-08T19:22:09.241Z,17.25
2024-03-08T19:24:37.836Z,13.98
2024-03-08T19:27:08.070Z,15.23
2024-03-08T19:29:36.903Z,18.40
2024-03-08T19:32:05.917Z,15.70
2024-03-08T19:34:36.204Z,15.65
2024-03-08T19:37:05.017Z,18.13
2024-03-08T19:39:33.515Z,18.85
2024-03-08T19:42:01.934Z,18.17
2024-03-08T19:44:31.705Z,16.33
2024-03-08T19:46:59.624Z,18.38
2024-03-08T19:49:28.316Z,19.00
2024-03-08T19:51:58.129Z,17.80
2024-03-08T19:54:27.217Z,14.05
2024-03-08T19:56:55.767Z,17.50
2024-03-08T19:59:25.746Z,17.40
2024-03-08T20:01:54.670Z,14.10
2024-03-08T20:04:23.263Z,17.58
2024-03-08T20:06:52.543Z,16.65
2024-03-08T20:09:26.072Z,17.75
2024-03-08T20:11:56.524Z,16.27
2024-03-08T20:14:27.825Z,14.23
2024-03-08T20:16:57.300Z,16.40
2024-03-08T20:19:26.292Z,17.08
2024-03-08T20:21:55.841Z,17.42
2024-03-08T20:24:25.894Z,14.10
2024-03-08T20:26:54.297Z,14.65
2024-03-08T20:29:23.213Z,14.85
2024-03-08T20:31:51.688Z,15.68
2024-03-08T20:34:20.262Z,14.05
2024-03-08T20:36:50.646Z,14.23
2024-03-08T20:39:22.460Z,15.25
2024-03-08T20:41:55.356Z,14.45
2024-03-08T20:44:24.636Z,18.55
2024-03-08T20:46:53.452Z,15.63
2024-03-08T20:49:22.162Z,20.15
2024-03-08T20:51:50.720Z,21.58
2024-03-08T20:54:19.586Z,16.83
2024-03-08T20:56:48.345Z,16.70
2024-03-08T20:59:18.600Z,17.25
2024-03-08T21:01:47.441Z,15.60
2024-03-08T21:04:16.686Z,18.88
2024-03-08T21:06:48.767Z,15.48
2024-03-08T21:09:17.778Z,18.27
2024-03-08T21:11:46.516Z,20.13
2024-03-08T21:16:45.332Z,18.08
2024-03-08T21:19:14.582Z,17.05
2024-03-08T21:21:43.832Z,21.40
2024-03-08T21:24:13.943Z,21.15
2024-03-08T21:26:42.848Z,19.25
2024-03-08T21:29:11.608Z,21.02
2024-03-08T21:31:40.758Z,21.52
2024-03-08T21:34:10.816Z,19.90
2024-03-08T21:36:40.605Z,18.85
2024-03-08T21:39:12.470Z,20.40
2024-03-08T21:41:42.245Z,21.08
2024-03-08T21:44:10.736Z,20.33
2024-03-08T21:46:39.603Z,20.23
2024-03-08T21:49:08.341Z,21.70
2024-03-08T21:51:47.665Z,21.67
2024-03-08T21:54:18.797Z,21.13
2024-03-08T21:56:47.568Z,20.15
2024-03-08T21:59:18.143Z,21.85
2024-03-08T22:01:49.464Z,19.50
2024-03-08T22:04:18.440Z,21.33
2024-03-08T22:06:51.294Z,24.15
2024-03-08T22:09:21.297Z,22.95
2024-03-08T22:11:50.179Z,22.73
2024-03-08T22:14:18.743Z,19.77
2024-03-08T22:16:48.701Z,24.20
2024-03-08T22:19:17.365Z,22.92
2024-03-08T22:21:45.827Z,24.52
2024-03-08T22:24:16.257Z,25.20
2024-03-08T22:26:45.014Z,23.70
2024-03-08T22:29:13.595Z,26.17
2024-03-08T22:31:42.402Z,28.80
2024-03-08T22:34:11.729Z,24.13
2024-03-08T22:36:41.413Z,23.92
2024-03-08T22:39:11.358Z,24.38
2024-03-08T22:41:41.782Z,25.15
2024-03-08T22:44:10.355Z,18.27
2024-03-08T22:46:38.864Z,19.58
2024-03-08T22:49:08.746Z,24.02
2024-03-08T22:51:38.111Z,21.27
2024-03-08T22:54:06.920Z,23.73
2024-03-08T22:56:35.428Z,22.95
2024-03-08T22:59:06.656Z,26.80
2024-03-08T23:01:35.620Z,27.63
2024-03-08T23:04:04.320Z,27.40
2024-03-08T23:06:33.000Z,29.90
2024-03-08T23:09:01.975Z,28.75
2024-03-08T23:11:30.493Z,29.00
2024-03-08T23:13:59.395Z,30.50
2024-03-08T23:16:29.310Z,24.08
2024-03-08T23:18:58.929Z,27.67
2024-03-08T23:21:27.444Z,32.00
2024-03-08T23:23:56.427Z,27.65
2024-03-08T23:26:24.959Z,25.10
2024-03-08T23:28:53.837Z,28.23
2024-03-08T23:31:23.385Z,27.08
2024-03-08T23:33:53.649Z,25.33
2024-03-08T23:36:22.117Z,27.70
2024-03-08T23:38:51.944Z,25.35
2024-03-08T23:41:20.436Z,28.52
2024-03-08T23:43:49.397Z,28.90
2024-03-08T23:46:17.934Z,30.65
2024-03-08T23:48:48.491Z,28.42
2024-03-08T23:51:19.708Z,32.72
2024-03-08T23:53:48.170Z,33.38
2024-03-08T23:56:16.705Z,30.83
2024-03-08T23:58:46.028Z,32.95
